sensor_id;sensor_type;location;lat;lon;timestamp;pressure;altitude;pressure_sealevel;temperature;humidity
66681;BME280;53575;51.366;12.350;2023-02-11T00:00:52;101954.16;;;2.04;87.35
66681;BME280;53575;51.366;12.350;2023-02-11T00:03:17;101966.66;;;2.13;87.36
66681;BME280;53575;51.366;12.350;2023-02-11T00:05:43;101967.63;;;2.15;87.05
66681;BME280;53575;51.366;12.350;2023-02-11T00:08:08;101956.25;;;2.11;87.17
66681;BME280;53575;51.366;12.350;2023-02-11T00:10:34;101943.59;;;2.16;86.82
66681;BME280;53575;51.366;12.350;2023-02-11T00:12:59;101941.03;;;2.16;86.88
66681;BME280;53575;51.366;12.350;2023-02-11T00:15:24;101929.25;;;2.21;86.99
66681;BME280;53575;51.366;12.350;2023-02-11T00:17:50;101920.63;;;2.20;86.66
66681;BME280;53575;51.366;12.350;2023-02-11T00:20:15;101910.03;;;2.14;87.24
66681;BME280;53575;51.366;12.350;2023-02-11T00:22:41;101906.44;;;2.12;87.58
66681;BME280;53575;51.366;12.350;2023-02-11T00:25:06;101895.44;;;2.15;87.20
66681;BME280;53575;51.366;12.350;2023-02-11T00:27:32;101891.56;;;2.07;87.76
66681;BME280;53575;51.366;12.350;2023-02-11T00:29:57;101894.84;;;2.04;87.76
66681;BME280;53575;51.366;12.350;2023-02-11T00:32:25;101886.47;;;2.08;87.75
66681;BME280;53575;51.366;12.350;2023-02-11T00:34:53;101884.78;;;2.09;87.81
66681;BME280;53575;51.366;12.350;2023-02-11T00:37:19;101886.41;;;2.07;87.92
66681;BME280;53575;51.366;12.350;2023-02-11T00:39:45;101879.44;;;2.06;87.80
66681;BME280;53575;51.366;12.350;2023-02-11T00:42:13;101880.97;;;2.02;88.14
66681;BME280;53575;51.366;12.350;2023-02-11T00:44:39;101878.25;;;1.99;88.38
66681;BME280;53575;51.366;12.350;2023-02-11T00:47:04;101880.91;;;2.01;88.04
66681;BME280;53575;51.366;12.350;2023-02-11T00:49:30;101876.16;;;1.92;88.47
66681;BME280;53575;51.366;12.350;2023-02-11T00:51:55;101882.19;;;1.92;88.67
66681;BME280;53575;51.366;12.350;2023-02-11T00:54:21;101877.66;;;1.88;88.79
66681;BME280;53575;51.366;12.350;2023-02-11T00:56:46;101860.44;;;1.87;88.99
66681;BME280;53575;51.366;12.350;2023-02-11T00:59:12;101866.31;;;1.85;89.28
66681;BME280;53575;51.366;12.350;2023-02-11T01:01:37;101860.34;;;1.86;89.23
66681;BME280;53575;51.366;12.350;2023-02-11T01:04:02;101865.97;;;1.79;90.00
66681;BME280;53575;51.366;12.350;2023-02-11T01:06:28;101866.69;;;1.76;90.09
66681;BME280;53575;51.366;12.350;2023-02-11T01:08:53;101864.25;;;1.79;89.91
66681;BME280;53575;51.366;12.350;2023-02-11T01:11:20;101866.94;;;1.81;90.32
66681;BME280;53575;51.366;12.350;2023-02-11T01:13:46;101865.19;;;1.80;90.23
66681;BME280;53575;51.366;12.350;2023-02-11T01:16:13;101864.59;;;1.85;90.14
66681;BME280;53575;51.366;12.350;2023-02-11T01:18:39;101851.97;;;1.90;89.87
66681;BME280;53575;51.366;12.350;2023-02-11T01:21:06;101847.84;;;1.93;89.98
66681;BME280;53575;51.366;12.350;2023-02-11T01:23:32;101852.94;;;1.92;89.99
66681;BME280;53575;51.366;12.350;2023-02-11T01:25:58;101844.81;;;2.01;89.56
66681;BME280;53575;51.366;12.350;2023-02-11T01:28:26;101845.94;;;2.06;89.57
66681;BME280;53575;51.366;12.350;2023-02-11T01:30:52;101840.00;;;2.07;89.53
66681;BME280;53575;51.366;12.350;2023-02-11T01:33:19;101841.91;;;2.11;89.44
66681;BME280;53575;51.366;12.350;2023-02-11T01:35:45;101837.81;;;2.14;89.08
66681;BME280;53575;51.366;12.350;2023-02-11T01:38:16;101842.09;;;2.14;89.22
66681;BME280;53575;51.366;12.350;2023-02-11T01:41:03;101825.56;;;2.10;89.24
66681;BME280;53575;51.366;12.350;2023-02-11T01:43:35;101829.19;;;2.14;89.34
66681;BME280;53575;51.366;12.350;2023-02-11T01:46:32;101831.41;;;2.24;88.83
66681;BME280;53575;51.366;12.350;2023-02-11T01:49:03;101830.63;;;2.25;88.85
66681;BME280;53575;51.366;12.350;2023-02-11T01:51:35;101849.25;;;2.19;88.90
66681;BME280;53575;51.366;12.350;2023-02-11T01:54:03;101843.53;;;2.25;88.97
66681;BME280;53575;51.366;12.350;2023-02-11T01:56:51;101832.69;;;2.32;88.16
66681;BME280;53575;51.366;12.350;2023-02-11T01:59:42;101825.06;;;2.34;88.16
66681;BME280;53575;51.366;12.350;2023-02-11T02:02:11;101839.88;;;2.38;87.85
66681;BME280;53575;51.366;12.350;2023-02-11T02:04:52;101848.00;;;2.46;88.03
66681;BME280;53575;51.366;12.350;2023-02-11T02:07:38;101854.22;;;2.49;87.52
66681;BME280;53575;51.366;12.350;2023-02-11T02:10:10;101841.47;;;2.52;87.49
66681;BME280;53575;51.366;12.350;2023-02-11T02:12:38;101840.94;;;2.59;87.06
66681;BME280;53575;51.366;12.350;2023-02-11T02:15:23;101857.91;;;2.54;87.11
66681;BME280;53575;51.366;12.350;2023-02-11T02:20:49;101850.50;;;2.60;87.28
66681;BME280;53575;51.366;12.350;2023-02-11T02:23:28;101841.94;;;2.61;87.41
66681;BME280;53575;51.366;12.350;2023-02-11T02:28:46;101836.78;;;2.61;87.28
66681;BME280;53575;51.366;12.350;2023-02-11T02:34:09;101810.69;;;2.73;87.16
66681;BME280;53575;51.366;12.350;2023-02-11T02:36:43;101810.69;;;2.73;87.48
66681;BME280;53575;51.366;12.350;2023-02-11T02:39:29;101808.44;;;2.79;87.09
66681;BME280;53575;51.366;12.350;2023-02-11T02:41:57;101800.59;;;2.78;86.86
66681;BME280;53575;51.366;12.350;2023-02-11T02:44:23;101802.44;;;2.80;86.95
66681;BME280;53575;51.366;12.350;2023-02-11T02:46:50;101789.69;;;2.83;87.17
66681;BME280;53575;51.366;12.350;2023-02-11T02:49:16;101793.88;;;2.81;87.37
66681;BME280;53575;51.366;12.350;2023-02-11T02:57:38;101788.94;;;2.86;87.37
66681;BME280;53575;51.366;12.350;2023-02-11T03:06:27;101803.84;;;2.91;87.88
66681;BME280;53575;51.366;12.350;2023-02-11T03:08:59;101806.50;;;2.93;87.53
66681;BME280;53575;51.366;12.350;2023-02-11T03:11:27;101811.66;;;2.93;87.82
66681;BME280;53575;51.366;12.350;2023-02-11T03:13:53;101803.91;;;2.93;87.94
66681;BME280;53575;51.366;12.350;2023-02-11T03:16:25;101793.00;;;2.99;87.60
66681;BME280;53575;51.366;12.350;2023-02-11T03:18:58;101788.34;;;2.91;87.74
66681;BME280;53575;51.366;12.350;2023-02-11T03:21:28;101785.47;;;2.85;88.52
66681;BME280;53575;51.366;12.350;2023-02-11T03:23:58;101782.97;;;2.87;88.67
66681;BME280;53575;51.366;12.350;2023-02-11T03:26:50;101773.81;;;2.93;88.97
66681;BME280;53575;51.366;12.350;2023-02-11T03:29:37;101766.16;;;2.95;89.01
66681;BME280;53575;51.366;12.350;2023-02-11T03:32:16;101768.75;;;2.95;89.06
66681;BME280;53575;51.366;12.350;2023-02-11T03:38:03;101753.53;;;3.01;88.81
66681;BME280;53575;51.366;12.350;2023-02-11T03:40:31;101753.66;;;3.04;88.42
66681;BME280;53575;51.366;12.350;2023-02-11T03:43:03;101747.78;;;3.07;89.07
66681;BME280;53575;51.366;12.350;2023-02-11T03:45:35;101757.06;;;3.03;88.85
66681;BME280;53575;51.366;12.350;2023-02-11T03:48:34;101768.38;;;3.05;88.78
66681;BME280;53575;51.366;12.350;2023-02-11T03:51:05;101766.88;;;3.10;88.84
66681;BME280;53575;51.366;12.350;2023-02-11T03:53:32;101769.38;;;3.09;89.17
66681;BME280;53575;51.366;12.350;2023-02-11T03:56:02;101762.66;;;3.12;88.98
66681;BME280;53575;51.366;12.350;2023-02-11T03:58:29;101762.97;;;3.18;88.78
66681;BME280;53575;51.366;12.350;2023-02-11T04:00:54;101752.84;;;3.23;88.16
66681;BME280;53575;51.366;12.350;2023-02-11T04:03:20;101741.63;;;3.23;88.16
66681;BME280;53575;51.366;12.350;2023-02-11T04:05:46;101755.50;;;3.25;88.48
66681;BME280;53575;51.366;12.350;2023-02-11T04:08:11;101754.75;;;3.27;88.64
66681;BME280;53575;51.366;12.350;2023-02-11T04:10:39;101758.31;;;3.29;88.37
66681;BME280;53575;51.366;12.350;2023-02-11T04:13:05;101749.00;;;3.33;88.27
66681;BME280;53575;51.366;12.350;2023-02-11T04:15:32;101745.44;;;3.31;88.29
66681;BME280;53575;51.366;12.350;2023-02-11T04:17:57;101743.84;;;3.33;88.41
66681;BME280;53575;51.366;12.350;2023-02-11T04:20:23;101737.91;;;3.35;88.40
66681;BME280;53575;51.366;12.350;2023-02-11T04:22:48;101735.06;;;3.29;88.81
66681;BME280;53575;51.366;12.350;2023-02-11T04:25:14;101733.34;;;3.30;88.36
66681;BME280;53575;51.366;12.350;2023-02-11T04:27:39;101732.72;;;3.35;88.59
66681;BME280;53575;51.366;12.350;2023-02-11T04:30:06;101735.25;;;3.34;88.40
66681;BME280;53575;51.366;12.350;2023-02-11T04:32:31;101734.38;;;3.33;88.66
66681;BME280;53575;51.366;12.350;2023-02-11T04:34:57;101740.28;;;3.31;88.58
66681;BME280;53575;51.366;12.350;2023-02-11T04:37:23;101743.84;;;3.33;88.86
66681;BME280;53575;51.366;12.350;2023-02-11T04:39:48;101739.69;;;3.36;88.66
66681;BME280;53575;51.366;12.350;2023-02-11T04:42:15;101739.00;;;3.40;88.38
66681;BME280;53575;51.366;12.350;2023-02-11T04:44:42;101741.75;;;3.44;88.24
66681;BME280;53575;51.366;12.350;2023-02-11T04:47:07;101739.16;;;3.44;88.55
66681;BME280;53575;51.366;12.350;2023-02-11T04:49:33;101737.56;;;3.47;88.28
66681;BME280;53575;51.366;12.350;2023-02-11T04:51:59;101728.69;;;3.40;88.51
66681;BME280;53575;51.366;12.350;2023-02-11T04:54:24;101735.66;;;3.43;88.53
66681;BME280;53575;51.366;12.350;2023-02-11T04:56:50;101732.97;;;3.40;88.59
66681;BME280;53575;51.366;12.350;2023-02-11T04:59:15;101735.56;;;3.40;88.93
66681;BME280;53575;51.366;12.350;2023-02-11T05:01:41;101739.91;;;3.41;89.16
66681;BME280;53575;51.366;12.350;2023-02-11T05:04:08;101744.44;;;3.47;89.01
66681;BME280;53575;51.366;12.350;2023-02-11T05:06:36;101741.75;;;3.44;88.77
66681;BME280;53575;51.366;12.350;2023-02-11T05:09:02;101742.16;;;3.53;88.84
66681;BME280;53575;51.366;12.350;2023-02-11T05:11:27;101735.28;;;3.53;88.64
66681;BME280;53575;51.366;12.350;2023-02-11T05:13:53;101736.16;;;3.54;88.58
66681;BME280;53575;51.366;12.350;2023-02-11T05:16:18;101733.88;;;3.60;88.78
66681;BME280;53575;51.366;12.350;2023-02-11T05:18:44;101725.28;;;3.61;88.40
66681;BME280;53575;51.366;12.350;2023-02-11T05:21:15;101728.00;;;3.64;88.84
66681;BME280;53575;51.366;12.350;2023-02-11T05:23:41;101737.53;;;3.65;89.26
66681;BME280;53575;51.366;12.350;2023-02-11T05:26:08;101725.56;;;3.67;88.59
66681;BME280;53575;51.366;12.350;2023-02-11T05:28:34;101724.59;;;3.65;89.04
66681;BME280;53575;51.366;12.350;2023-02-11T05:31:00;101719.44;;;3.65;89.08
66681;BME280;53575;51.366;12.350;2023-02-11T05:33:28;101720.44;;;3.69;89.16
66681;BME280;53575;51.366;12.350;2023-02-11T05:36:08;101723.31;;;3.75;88.73
66681;BME280;53575;51.366;12.350;2023-02-11T05:38:35;101727.47;;;3.71;88.80
66681;BME280;53575;51.366;12.350;2023-02-11T05:41:02;101721.88;;;3.81;88.95
66681;BME280;53575;51.366;12.350;2023-02-11T05:43:27;101732.09;;;3.78;89.05
66681;BME280;53575;51.366;12.350;2023-02-11T05:45:53;101738.47;;;3.86;88.82
66681;BME280;53575;51.366;12.350;2023-02-11T05:48:19;101735.81;;;3.85;88.62
66681;BME280;53575;51.366;12.350;2023-02-11T05:50:45;101728.97;;;3.85;89.15
66681;BME280;53575;51.366;12.350;2023-02-11T05:53:13;101738.34;;;3.83;89.01
66681;BME280;53575;51.366;12.350;2023-02-11T05:55:39;101732.88;;;3.77;89.16
66681;BME280;53575;51.366;12.350;2023-02-11T05:58:05;101727.66;;;3.76;89.07
66681;BME280;53575;51.366;12.350;2023-02-11T06:00:32;101726.84;;;3.77;89.43
66681;BME280;53575;51.366;12.350;2023-02-11T06:02:58;101726.09;;;3.79;89.25
66681;BME280;53575;51.366;12.350;2023-02-11T06:05:23;101714.53;;;3.71;89.43
66681;BME280;53575;51.366;12.350;2023-02-11T06:07:49;101709.28;;;3.70;89.48
66681;BME280;53575;51.366;12.350;2023-02-11T06:10:15;101705.13;;;3.73;89.83
66681;BME280;53575;51.366;12.350;2023-02-11T06:12:40;101721.28;;;3.67;90.48
66681;BME280;53575;51.366;12.350;2023-02-11T06:15:06;101721.28;;;3.67;90.13
66681;BME280;53575;51.366;12.350;2023-02-11T06:17:32;101718.94;;;3.74;90.21
66681;BME280;53575;51.366;12.350;2023-02-11T06:20:02;101711.28;;;3.75;90.43
66681;BME280;53575;51.366;12.350;2023-02-11T06:22:27;101709.75;;;3.80;90.44
66681;BME280;53575;51.366;12.350;2023-02-11T06:24:53;101707.13;;;3.79;90.70
66681;BME280;53575;51.366;12.350;2023-02-11T06:27:19;101706.84;;;3.73;90.60
66681;BME280;53575;51.366;12.350;2023-02-11T06:29:45;101705.28;;;3.76;90.41
66681;BME280;53575;51.366;12.350;2023-02-11T06:32:12;101712.00;;;3.73;90.86
66681;BME280;53575;51.366;12.350;2023-02-11T06:34:38;101700.94;;;3.75;90.79
66681;BME280;53575;51.366;12.350;2023-02-11T06:37:04;101709.03;;;3.83;90.24
66681;BME280;53575;51.366;12.350;2023-02-11T06:39:29;101716.78;;;3.83;90.77
66681;BME280;53575;51.366;12.350;2023-02-11T06:41:55;101714.25;;;3.84;90.41
66681;BME280;53575;51.366;12.350;2023-02-11T06:44:20;101709.22;;;3.87;90.46
66681;BME280;53575;51.366;12.350;2023-02-11T06:46:48;101707.59;;;3.89;90.24
66681;BME280;53575;51.366;12.350;2023-02-11T06:49:14;101719.56;;;3.87;90.50
66681;BME280;53575;51.366;12.350;2023-02-11T06:51:39;101731.75;;;3.90;90.26
66681;BME280;53575;51.366;12.350;2023-02-11T06:54:06;101734.34;;;3.90;90.21
66681;BME280;53575;51.366;12.350;2023-02-11T06:56:32;101735.28;;;3.92;90.03
66681;BME280;53575;51.366;12.350;2023-02-11T06:58:59;101741.66;;;4.00;90.02
66681;BME280;53575;51.366;12.350;2023-02-11T07:01:25;101730.25;;;3.95;90.11
66681;BME280;53575;51.366;12.350;2023-02-11T07:03:52;101730.19;;;3.94;90.93
66681;BME280;53575;51.366;12.350;2023-02-11T07:06:22;101727.03;;;4.01;90.29
66681;BME280;53575;51.366;12.350;2023-02-11T07:08:49;101727.66;;;3.95;90.65
66681;BME280;53575;51.366;12.350;2023-02-11T07:11:20;101719.94;;;3.97;90.46
66681;BME280;53575;51.366;12.350;2023-02-11T07:13:49;101717.59;;;4.01;90.85
66681;BME280;53575;51.366;12.350;2023-02-11T07:16:16;101723.28;;;4.13;90.36
66681;BME280;53575;51.366;12.350;2023-02-11T07:18:42;101731.03;;;4.13;90.51
66681;BME280;53575;51.366;12.350;2023-02-11T07:21:09;101726.75;;;4.14;90.32
66681;BME280;53575;51.366;12.350;2023-02-11T07:23:36;101740.81;;;4.21;90.71
66681;BME280;53575;51.366;12.350;2023-02-11T07:26:06;101731.34;;;4.21;90.55
66681;BME280;53575;51.366;12.350;2023-02-11T07:28:33;101734.19;;;4.27;90.16
66681;BME280;53575;51.366;12.350;2023-02-11T07:31:05;101733.31;;;4.27;90.26
66681;BME280;53575;51.366;12.350;2023-02-11T07:33:31;101739.34;;;4.27;90.50
66681;BME280;53575;51.366;12.350;2023-02-11T07:35:59;101736.66;;;4.24;90.86
66681;BME280;53575;51.366;12.350;2023-02-11T07:38:25;101739.16;;;4.23;90.59
66681;BME280;53575;51.366;12.350;2023-02-11T07:40:50;101726.88;;;4.17;91.07
66681;BME280;53575;51.366;12.350;2023-02-11T07:43:15;101730.63;;;4.24;90.54
66681;BME280;53575;51.366;12.350;2023-02-11T07:45:41;101722.91;;;4.25;90.95
66681;BME280;53575;51.366;12.350;2023-02-11T07:48:06;101726.50;;;4.29;90.42
66681;BME280;53575;51.366;12.350;2023-02-11T07:50:32;101723.41;;;4.37;89.71
66681;BME280;53575;51.366;12.350;2023-02-11T07:52:57;101721.97;;;4.44;89.83
66681;BME280;53575;51.366;12.350;2023-02-11T07:55:23;101729.09;;;4.50;89.45
66681;BME280;53575;51.366;12.350;2023-02-11T07:57:48;101722.28;;;4.52;89.22
66681;BME280;53575;51.366;12.350;2023-02-11T08:00:15;101725.00;;;4.55;88.60
66681;BME280;53575;51.366;12.350;2023-02-11T08:02:41;101723.28;;;4.55;88.84
66681;BME280;53575;51.366;12.350;2023-02-11T08:05:07;101731.88;;;4.54;88.93
66681;BME280;53575;51.366;12.350;2023-02-11T08:07:32;101718.13;;;4.55;88.87
66681;BME280;53575;51.366;12.350;2023-02-11T08:09:58;101709.66;;;4.59;88.52
66681;BME280;53575;51.366;12.350;2023-02-11T08:12:23;101693.41;;;4.63;88.94
66681;BME280;53575;51.366;12.350;2023-02-11T08:14:49;101718.59;;;4.68;88.77
66681;BME280;53575;51.366;12.350;2023-02-11T08:17:14;101717.53;;;4.62;88.96
66681;BME280;53575;51.366;12.350;2023-02-11T08:19:40;101716.97;;;4.70;88.48
66681;BME280;53575;51.366;12.350;2023-02-11T08:22:05;101718.22;;;4.79;88.29
66681;BME280;53575;51.366;12.350;2023-02-11T08:24:31;101718.34;;;4.82;87.98
66681;BME280;53575;51.366;12.350;2023-02-11T08:26:56;101717.47;;;4.82;88.41
66681;BME280;53575;51.366;12.350;2023-02-11T08:29:22;101719.91;;;4.79;88.84
66681;BME280;53575;51.366;12.350;2023-02-11T08:31:47;101722.56;;;4.80;88.87
66681;BME280;53575;51.366;12.350;2023-02-11T08:34:13;101711.31;;;4.80;88.90
66681;BME280;53575;51.366;12.350;2023-02-11T08:36:40;101718.59;;;4.88;89.08
66681;BME280;53575;51.366;12.350;2023-02-11T08:39:09;101718.63;;;4.90;88.14
66681;BME280;53575;51.366;12.350;2023-02-11T08:41:36;101720.41;;;4.91;88.60
66681;BME280;53575;51.366;12.350;2023-02-11T08:44:02;101713.72;;;4.96;88.55
66681;BME280;53575;51.366;12.350;2023-02-11T08:46:27;101711.34;;;5.02;87.95
66681;BME280;53575;51.366;12.350;2023-02-11T08:48:53;101722.84;;;5.09;88.09
66681;BME280;53575;51.366;12.350;2023-02-11T08:51:21;101728.59;;;5.24;87.52
66681;BME280;53575;51.366;12.350;2023-02-11T08:53:47;101721.47;;;5.19;87.51
66681;BME280;53575;51.366;12.350;2023-02-11T08:56:15;101725.31;;;5.06;88.71
66681;BME280;53575;51.366;12.350;2023-02-11T08:58:41;101718.28;;;5.03;89.27
66681;BME280;53575;51.366;12.350;2023-02-11T09:01:11;101729.59;;;5.05;89.37
66681;BME280;53575;51.366;12.350;2023-02-11T09:03:37;101731.03;;;5.20;88.50
66681;BME280;53575;51.366;12.350;2023-02-11T09:06:05;101731.19;;;5.24;89.10
66681;BME280;53575;51.366;12.350;2023-02-11T09:08:33;101730.81;;;5.37;88.23
66681;BME280;53575;51.366;12.350;2023-02-11T09:10:59;101722.75;;;5.30;88.87
66681;BME280;53575;51.366;12.350;2023-02-11T09:13:24;101734.13;;;5.33;88.81
66681;BME280;53575;51.366;12.350;2023-02-11T09:15:49;101736.38;;;5.47;88.27
66681;BME280;53575;51.366;12.350;2023-02-11T09:18:15;101748.50;;;5.48;88.23
66681;BME280;53575;51.366;12.350;2023-02-11T09:20:40;101748.25;;;5.42;88.65
66681;BME280;53575;51.366;12.350;2023-02-11T09:23:06;101750.09;;;5.44;88.97
66681;BME280;53575;51.366;12.350;2023-02-11T09:25:31;101758.09;;;5.50;88.55
66681;BME280;53575;51.366;12.350;2023-02-11T09:27:56;101767.75;;;5.54;89.35
66681;BME280;53575;51.366;12.350;2023-02-11T09:30:22;101765.00;;;5.50;89.67
66681;BME280;53575;51.366;12.350;2023-02-11T09:32:47;101757.44;;;5.56;89.41
66681;BME280;53575;51.366;12.350;2023-02-11T09:35:13;101752.25;;;5.56;89.47
66681;BME280;53575;51.366;12.350;2023-02-11T09:37:38;101753.38;;;5.62;89.60
66681;BME280;53575;51.366;12.350;2023-02-11T09:40:04;101752.38;;;5.59;89.67
66681;BME280;53575;51.366;12.350;2023-02-11T09:42:41;101759.69;;;5.69;89.66
66681;BME280;53575;51.366;12.350;2023-02-11T09:45:19;101759.16;;;5.79;89.25
66681;BME280;53575;51.366;12.350;2023-02-11T09:47:49;101758.03;;;5.95;88.78
66681;BME280;53575;51.366;12.350;2023-02-11T09:50:23;101768.53;;;5.98;88.39
66681;BME280;53575;51.366;12.350;2023-02-11T09:53:03;101782.72;;;6.08;88.14
66681;BME280;53575;51.366;12.350;2023-02-11T09:55:42;101770.25;;;5.98;88.42
66681;BME280;53575;51.366;12.350;2023-02-11T09:58:13;101766.06;;;6.01;88.67
66681;BME280;53575;51.366;12.350;2023-02-11T10:00:47;101779.91;;;6.02;88.63
66681;BME280;53575;51.366;12.350;2023-02-11T10:09:03;101755.66;;;6.01;89.03
66681;BME280;53575;51.366;12.350;2023-02-11T10:14:33;101730.59;;;6.02;89.48
66681;BME280;53575;51.366;12.350;2023-02-11T10:22:52;101750.03;;;6.13;89.51
66681;BME280;53575;51.366;12.350;2023-02-11T10:25:24;101744.38;;;6.25;89.08
66681;BME280;53575;51.366;12.350;2023-02-11T10:27:51;101740.72;;;6.18;89.83
66681;BME280;53575;51.366;12.350;2023-02-11T10:33:19;101728.03;;;6.27;89.38
66681;BME280;53575;51.366;12.350;2023-02-11T10:35:47;101755.03;;;6.32;88.61
66681;BME280;53575;51.366;12.350;2023-02-11T10:38:12;101750.19;;;6.43;88.33
66681;BME280;53575;51.366;12.350;2023-02-11T10:40:38;101762.44;;;6.47;88.12
66681;BME280;53575;51.366;12.350;2023-02-11T10:43:09;101755.78;;;6.55;88.22
66681;BME280;53575;51.366;12.350;2023-02-11T10:45:38;101766.81;;;6.48;88.36
66681;BME280;53575;51.366;12.350;2023-02-11T10:51:25;101763.19;;;6.43;88.12
66681;BME280;53575;51.366;12.350;2023-02-11T10:56:33;101761.56;;;6.47;88.24
66681;BME280;53575;51.366;12.350;2023-02-11T11:04:46;101714.56;;;6.39;88.89
66681;BME280;53575;51.366;12.350;2023-02-11T11:15:17;101749.78;;;6.31;89.03
66681;BME280;53575;51.366;12.350;2023-02-11T11:17:49;101744.75;;;6.35;88.94
66681;BME280;53575;51.366;12.350;2023-02-11T11:20:25;101734.47;;;6.39;88.44
66681;BME280;53575;51.366;12.350;2023-02-11T11:23:26;101718.56;;;6.29;89.24
66681;BME280;53575;51.366;12.350;2023-02-11T11:28:32;101718.78;;;6.35;89.42
66681;BME280;53575;51.366;12.350;2023-02-11T11:31:03;101724.97;;;6.39;88.94
66681;BME280;53575;51.366;12.350;2023-02-11T11:33:34;101717.66;;;6.53;88.61
66681;BME280;53575;51.366;12.350;2023-02-11T11:36:19;101718.31;;;6.47;88.96
66681;BME280;53575;51.366;12.350;2023-02-11T11:38:52;101716.72;;;6.52;88.91
66681;BME280;53575;51.366;12.350;2023-02-11T11:41:28;101717.72;;;6.56;88.76
66681;BME280;53575;51.366;12.350;2023-02-11T11:43:55;101731.03;;;6.65;88.52
66681;BME280;53575;51.366;12.350;2023-02-11T11:46:41;101731.03;;;6.65;88.22
66681;BME280;53575;51.366;12.350;2023-02-11T11:49:24;101734.41;;;6.63;88.03
66681;BME280;53575;51.366;12.350;2023-02-11T11:52:18;101739.00;;;6.71;88.16
66681;BME280;53575;51.366;12.350;2023-02-11T11:54:50;101744.25;;;6.73;87.50
66681;BME280;53575;51.366;12.350;2023-02-11T11:57:27;101749.31;;;6.68;87.76
66681;BME280;53575;51.366;12.350;2023-02-11T11:59:54;101755.69;;;6.52;88.24
66681;BME280;53575;51.366;12.350;2023-02-11T12:02:34;101737.50;;;6.52;88.74
66681;BME280;53575;51.366;12.350;2023-02-11T12:05:10;101730.06;;;6.63;88.35
66681;BME280;53575;51.366;12.350;2023-02-11T12:24:26;101749.63;;;6.79;87.76
66681;BME280;53575;51.366;12.350;2023-02-11T12:29:49;101746.78;;;6.71;88.14
66681;BME280;53575;51.366;12.350;2023-02-11T12:32:38;101736.06;;;6.61;88.30
66681;BME280;53575;51.366;12.350;2023-02-11T12:53:13;101721.75;;;6.46;90.01
66681;BME280;53575;51.366;12.350;2023-02-11T12:55:45;101716.34;;;6.40;90.42
66681;BME280;53575;51.366;12.350;2023-02-11T12:58:15;101727.53;;;6.38;90.49
66681;BME280;53575;51.366;12.350;2023-02-11T13:00:47;101731.78;;;6.35;90.84
66681;BME280;53575;51.366;12.350;2023-02-11T13:03:28;101731.91;;;6.40;90.72
66681;BME280;53575;51.366;12.350;2023-02-11T13:08:35;101733.75;;;6.43;90.59
66681;BME280;53575;51.366;12.350;2023-02-11T13:11:07;101741.63;;;6.46;90.69
66681;BME280;53575;51.366;12.350;2023-02-11T13:16:49;101729.38;;;6.42;90.86
66681;BME280;53575;51.366;12.350;2023-02-11T13:19:29;101729.28;;;6.39;91.71
66681;BME280;53575;51.366;12.350;2023-02-11T13:22:18;101718.03;;;6.38;91.71
66681;BME280;53575;51.366;12.350;2023-02-11T13:28:19;101736.84;;;6.32;92.84
66681;BME280;53575;51.366;12.350;2023-02-11T13:30:47;101729.03;;;6.31;92.68
66681;BME280;53575;51.366;12.350;2023-02-11T13:33:35;101716.19;;;6.35;92.19
66681;BME280;53575;51.366;12.350;2023-02-11T13:38:28;101721.22;;;6.31;93.42
66681;BME280;53575;51.366;12.350;2023-02-11T13:41:06;101724.09;;;6.39;93.08
66681;BME280;53575;51.366;12.350;2023-02-11T13:43:39;101727.94;;;6.50;92.32
66681;BME280;53575;51.366;12.350;2023-02-11T13:46:07;101720.03;;;6.47;92.44
66681;BME280;53575;51.366;12.350;2023-02-11T13:48:35;101735.75;;;6.51;92.48
66681;BME280;53575;51.366;12.350;2023-02-11T13:51:06;101736.47;;;6.47;92.46
66681;BME280;53575;51.366;12.350;2023-02-11T13:56:28;101734.97;;;6.54;92.57
66681;BME280;53575;51.366;12.350;2023-02-11T13:58:54;101730.41;;;6.47;92.83
66681;BME280;53575;51.366;12.350;2023-02-11T14:11:03;101734.88;;;6.51;93.43
66681;BME280;53575;51.366;12.350;2023-02-11T14:16:20;101734.28;;;6.59;92.73
66681;BME280;53575;51.366;12.350;2023-02-11T14:35:17;101750.44;;;6.76;92.51
66681;BME280;53575;51.366;12.350;2023-02-11T14:42:55;101746.91;;;6.74;92.84
66681;BME280;53575;51.366;12.350;2023-02-11T14:45:26;101750.13;;;6.67;93.36
66681;BME280;53575;51.366;12.350;2023-02-11T14:48:04;101746.66;;;6.67;93.36
66681;BME280;53575;51.366;12.350;2023-02-11T14:50:42;101729.31;;;6.66;93.84
66681;BME280;53575;51.366;12.350;2023-02-11T14:53:15;101736.31;;;6.68;94.04
66681;BME280;53575;51.366;12.350;2023-02-11T14:55:45;101734.53;;;6.67;94.00
66681;BME280;53575;51.366;12.350;2023-02-11T14:58:15;101724.34;;;6.73;94.05
66681;BME280;53575;51.366;12.350;2023-02-11T15:03:27;101727.00;;;6.75;93.99
66681;BME280;53575;51.366;12.350;2023-02-11T15:05:58;101727.91;;;6.75;93.75
66681;BME280;53575;51.366;12.350;2023-02-11T15:08:25;101731.63;;;6.83;93.73
66681;BME280;53575;51.366;12.350;2023-02-11T15:10:52;101732.38;;;6.79;94.01
66681;BME280;53575;51.366;12.350;2023-02-11T15:13:20;101734.97;;;6.79;93.95
66681;BME280;53575;51.366;12.350;2023-02-11T15:15:53;101743.63;;;6.80;94.38
66681;BME280;53575;51.366;12.350;2023-02-11T15:18:21;101743.56;;;6.78;94.17
66681;BME280;53575;51.366;12.350;2023-02-11T15:20:49;101746.16;;;6.78;94.56
66681;BME280;53575;51.366;12.350;2023-02-11T15:23:25;101739.50;;;6.87;94.38
66681;BME280;53575;51.366;12.350;2023-02-11T15:25:51;101751.66;;;6.88;94.35
66681;BME280;53575;51.366;12.350;2023-02-11T15:28:28;101749.72;;;6.80;95.37
66681;BME280;53575;51.366;12.350;2023-02-11T15:33:30;101765.28;;;6.80;95.69
66681;BME280;53575;51.366;12.350;2023-02-11T15:36:00;101764.56;;;6.84;95.96